createdAt,value
2022-11-08T00:01:34.441Z,60.96
2022-11-08T00:04:02.544Z,60.56
2022-11-08T00:06:47.944Z,60.30
2022-11-08T00:09:33.024Z,61.63
2022-11-08T00:12:18.643Z,61.52
2022-11-08T00:14:49.234Z,63.63
2022-11-08T00:17:16.795Z,61.88
2022-11-08T00:19:44.024Z,63.38
2022-11-08T00:22:11.710Z,64.63
2022-11-08T00:24:38.624Z,68.22
2022-11-08T00:27:06.676Z,66.48
2022-11-08T00:29:36.963Z,65.73
2022-11-08T00:32:04.572Z,65.14
2022-11-08T00:34:32.525Z,64.59
2022-11-08T00:36:59.705Z,65.04
2022-11-08T00:39:26.603Z,64.34
2022-11-08T00:41:53.396Z,65.49
2022-11-08T00:44:20.230Z,64.33
2022-11-08T00:46:47.076Z,65.36
2022-11-08T00:49:13.898Z,64.49
2022-11-08T00:51:41.125Z,64.08
2022-11-08T00:54:08.703Z,64.10
2022-11-08T00:56:35.812Z,63.98
2022-11-08T00:59:02.723Z,63.80
2022-11-08T01:01:29.550Z,63.83
2022-11-08T01:03:56.513Z,63.05
2022-11-08T01:06:24.153Z,62.62
2022-11-08T01:08:51.122Z,62.31
2022-11-08T01:11:19.462Z,62.24
2022-11-08T01:13:46.536Z,63.69
2022-11-08T01:16:19.643Z,64.09
2022-11-08T01:18:47.176Z,63.76
2022-11-08T01:21:14.437Z,62.81
2022-11-08T01:23:41.435Z,62.18
2022-11-08T01:26:10.802Z,62.75
2022-11-08T01:28:38.076Z,63.69
2022-11-08T01:31:06.433Z,63.25
2022-11-08T01:33:33.534Z,64.05
2022-11-08T01:36:00.354Z,63.50
2022-11-08T01:38:27.205Z,62.81
2022-11-08T01:40:53.963Z,62.60
2022-11-08T01:43:29.978Z,62.10
2022-11-08T01:46:15.468Z,61.99
2022-11-08T01:48:44.992Z,62.16
2022-11-08T01:51:12.565Z,62.26
2022-11-08T01:53:39.623Z,62.00
2022-11-08T01:56:07.094Z,61.58
2022-11-08T01:58:35.083Z,61.96
2022-11-08T02:01:02.680Z,63.09
2022-11-08T02:03:31.033Z,62.77
2022-11-08T02:05:57.834Z,62.55
2022-11-08T02:08:38.703Z,64.17
2022-11-08T02:11:06.514Z,63.66
2022-11-08T02:13:34.746Z,63.84
2022-11-08T02:16:01.563Z,66.41
2022-11-08T02:18:31.105Z,66.89
2022-11-08T02:21:01.123Z,67.32
2022-11-08T02:23:30.333Z,67.05
2022-11-08T02:25:57.133Z,67.87
2022-11-08T02:28:23.843Z,66.80
2022-11-08T02:30:50.644Z,66.38
2022-11-08T02:33:18.930Z,66.41
2022-11-08T02:35:48.983Z,66.73
2022-11-08T02:38:16.786Z,67.28
2022-11-08T02:40:52.049Z,70.91
2022-11-08T02:43:18.963Z,72.15
2022-11-08T02:45:45.715Z,76.20
2022-11-08T02:48:13.174Z,74.74
2022-11-08T02:50:40.355Z,74.48
2022-11-08T02:53:08.033Z,73.30
2022-11-08T02:55:36.204Z,72.48
2022-11-08T02:58:03.364Z,70.93
2022-11-08T03:00:30.512Z,71.43
2022-11-08T03:02:58.052Z,71.01
2022-11-08T03:05:26.032Z,70.77
2022-11-08T03:07:53.873Z,70.39
2022-11-08T03:10:20.972Z,69.73
2022-11-08T03:12:47.864Z,70.63
2022-11-08T03:15:15.383Z,69.58
2022-11-08T03:24:56.371Z,68.29
2022-11-08T03:28:10.732Z,68.27
2022-11-08T03:37:49.613Z,66.60
2022-11-08T03:40:16.513Z,67.28
2022-11-08T03:42:43.552Z,67.07
2022-11-08T03:45:11.452Z,66.61
2022-11-08T03:47:39.292Z,66.14
2022-11-08T03:50:09.363Z,67.75
2022-11-08T03:52:48.092Z,68.12
2022-11-08T03:55:15.363Z,70.35
2022-11-08T03:57:42.363Z,76.66
2022-11-08T04:00:10.272Z,76.52
2022-11-08T04:02:37.089Z,76.26
2022-11-08T04:05:04.224Z,75.26
2022-11-08T04:07:31.059Z,74.26
2022-11-08T04:09:57.953Z,74.54
2022-11-08T04:12:43.551Z,77.80
2022-11-08T04:36:27.175Z,77.04
2022-11-08T04:42:03.385Z,77.58
2022-11-08T04:44:30.192Z,75.86
2022-11-08T04:46:57.043Z,76.32
2022-11-08T04:49:23.922Z,76.10
2022-11-08T04:51:50.796Z,76.77
2022-11-08T04:54:17.712Z,80.33
2022-11-08T04:56:44.561Z,78.73
2022-11-08T04:59:12.302Z,79.66
2022-11-08T05:01:39.564Z,78.53
2022-11-08T05:04:06.513Z,79.03
2022-11-08T05:06:33.264Z,78.78
2022-11-08T05:09:00.502Z,79.78
2022-11-08T05:11:28.568Z,78.65
2022-11-08T05:13:55.761Z,78.79
2022-11-08T05:16:24.075Z,79.76
2022-11-08T05:18:50.951Z,79.80
2022-11-08T05:21:36.972Z,82.22
2022-11-08T05:24:04.735Z,79.37
2022-11-08T05:26:35.876Z,78.79
2022-11-08T05:29:03.160Z,79.79
2022-11-08T05:31:30.022Z,81.20
2022-11-08T05:33:57.027Z,81.89
2022-11-08T05:36:26.654Z,83.67
2022-11-08T05:38:56.409Z,83.45
2022-11-08T05:41:24.183Z,84.90
2022-11-08T05:43:54.502Z,86.15
2022-11-08T05:46:22.717Z,84.83
2022-11-08T05:48:49.880Z,85.92
2022-11-08T05:51:18.083Z,85.92
2022-11-08T05:53:50.000Z,87.66
2022-11-08T05:56:25.132Z,86.50
2022-11-08T05:58:51.963Z,89.35
2022-11-08T06:01:19.472Z,85.71
2022-11-08T06:03:47.550Z,87.21
2022-11-08T06:06:16.183Z,87.37
2022-11-08T06:08:47.496Z,87.98
2022-11-08T06:11:18.214Z,87.03
2022-11-08T06:13:45.072Z,85.11
2022-11-08T06:16:13.043Z,84.00
2022-11-08T06:18:39.922Z,82.46
2022-11-08T06:21:07.762Z,81.22
2022-11-08T06:23:35.044Z,79.95
2022-11-08T06:26:02.012Z,79.19
2022-11-08T06:28:28.814Z,77.33
2022-11-08T06:30:55.511Z,74.28
2022-11-08T06:33:22.383Z,74.15
2022-11-08T06:35:49.154Z,74.88
2022-11-08T06:38:15.992Z,73.99
2022-11-08T06:40:43.011Z,72.02
2022-11-08T06:43:14.945Z,72.90
2022-11-08T06:45:44.932Z,70.63
2022-11-08T06:48:11.780Z,70.14
2022-11-08T06:50:42.881Z,68.26
2022-11-08T06:53:12.136Z,69.65
2022-11-08T06:55:40.017Z,67.80
2022-11-08T06:58:07.465Z,68.31
2022-11-08T07:00:36.555Z,67.14
2022-11-08T07:03:04.032Z,64.03
2022-11-08T07:05:32.187Z,61.50
2022-11-08T07:07:59.290Z,60.80
2022-11-08T07:10:27.022Z,62.40
2022-11-08T07:13:00.985Z,64.63
2022-11-08T07:15:28.426Z,65.56
2022-11-08T07:17:55.529Z,66.84
2022-11-08T07:20:51.710Z,65.20
2022-11-08T07:23:57.151Z,64.28
2022-11-08T07:42:57.183Z,60.19
2022-11-08T07:45:26.881Z,62.86
2022-11-08T07:48:12.287Z,60.16
2022-11-08T07:51:21.276Z,62.66
2022-11-08T07:53:50.540Z,63.80
2022-11-08T07:56:23.774Z,62.77
2022-11-08T07:58:59.388Z,59.54
2022-11-08T08:01:36.680Z,61.98
2022-11-08T08:04:03.945Z,63.30
2022-11-08T08:06:32.295Z,65.73
2022-11-08T08:08:59.252Z,65.26
2022-11-08T08:11:32.416Z,68.35
2022-11-08T08:14:03.584Z,67.88
2022-11-08T08:16:31.744Z,71.25
2022-11-08T08:19:17.794Z,70.50
2022-11-08T08:21:46.016Z,65.96
2022-11-08T08:27:17.921Z,56.39
2022-11-08T08:29:44.893Z,52.87
2022-11-08T08:32:12.477Z,50.92
2022-11-08T08:34:48.103Z,48.51
2022-11-08T08:37:18.993Z,50.34
2022-11-08T08:39:50.077Z,50.25
2022-11-08T08:42:32.284Z,51.69
2022-11-08T08:45:04.504Z,49.97
2022-11-08T08:47:31.814Z,52.46
2022-11-08T08:49:59.892Z,51.20
2022-11-08T08:52:34.141Z,51.61
2022-11-08T08:55:04.675Z,56.10
2022-11-08T08:58:02.779Z,57.70
2022-11-08T09:03:23.972Z,62.67
2022-11-08T09:05:54.133Z,61.78
2022-11-08T09:08:23.141Z,60.61
2022-11-08T09:10:57.292Z,57.96
2022-11-08T09:13:24.582Z,59.10
2022-11-08T09:15:54.304Z,54.77
2022-11-08T09:18:26.706Z,55.57
2022-11-08T09:20:56.434Z,53.65
2022-11-08T09:23:23.416Z,52.52
2022-11-08T09:25:50.257Z,50.18
2022-11-08T09:28:17.632Z,51.96
2022-11-08T09:30:44.586Z,56.92
2022-11-08T09:33:14.165Z,56.65
2022-11-08T09:35:42.702Z,55.15
2022-11-08T09:38:09.627Z,56.66
2022-11-08T09:40:41.752Z,56.94
2022-11-08T09:43:25.728Z,56.84
2022-11-08T09:45:54.072Z,58.57
2022-11-08T09:48:26.673Z,58.17
2022-11-08T09:50:54.692Z,58.07
2022-11-08T09:53:50.622Z,57.34
2022-11-08T09:56:37.310Z,55.60
2022-11-08T09:59:23.604Z,53.19
2022-11-08T10:01:50.584Z,56.08
2022-11-08T10:04:22.625Z,57.14
2022-11-08T10:07:15.846Z,54.99
2022-11-08T10:09:46.166Z,57.40
2022-11-08T10:12:26.202Z,52.97
2022-11-08T10:14:59.983Z,52.75
2022-11-08T10:17:39.554Z,50.26
2022-11-08T10:20:36.059Z,50.21
2022-11-08T10:23:10.694Z,49.79
2022-11-08T10:25:45.520Z,53.38
2022-11-08T10:28:27.038Z,53.22
2022-11-08T10:31:00.226Z,53.49
2022-11-08T10:33:27.381Z,50.82
2022-11-08T10:36:05.386Z,49.69
2022-11-08T10:38:44.317Z,48.38
2022-11-08T10:41:17.463Z,47.23
2022-11-08T10:44:06.108Z,46.85
2022-11-08T10:46:33.013Z,47.64
2022-11-08T10:49:11.282Z,48.26
2022-11-08T10:51:48.098Z,48.94
2022-11-08T10:54:54.923Z,52.42
2022-11-08T10:57:34.874Z,53.77
2022-11-08T11:00:20.326Z,53.43
2022-11-08T11:02:50.760Z,54.30
2022-11-08T11:05:24.936Z,53.87
2022-11-08T11:08:00.640Z,54.12
2022-11-08T11:10:30.721Z,54.07
2022-11-08T11:13:03.964Z,54.29
2022-11-08T11:15:38.174Z,54.59
2022-11-08T11:18:06.456Z,55.50
2022-11-08T11:21:12.358Z,56.30
2022-11-08T11:23:41.494Z,56.41
2022-11-08T11:26:11.182Z,55.99
2022-11-08T11:28:38.046Z,55.59
2022-11-08T11:31:15.725Z,56.17
2022-11-08T11:33:49.461Z,57.80
2022-11-08T11:36:20.781Z,57.14
2022-11-08T11:39:04.391Z,56.91
2022-11-08T11:41:39.095Z,56.42
2022-11-08T11:44:15.632Z,57.07
2022-11-08T11:46:45.606Z,55.76
2022-11-08T11:49:20.886Z,55.57
2022-11-08T11:51:48.826Z,54.16
2022-11-08T11:54:16.430Z,51.28
2022-11-08T11:56:47.054Z,53.04
2022-11-08T11:59:25.662Z,50.86
2022-11-08T12:02:17.188Z,49.50
2022-11-08T12:04:57.092Z,47.49
2022-11-08T12:07:42.565Z,47.29
2022-11-08T12:10:17.781Z,45.85
2022-11-08T12:16:16.357Z,44.27
2022-11-08T12:19:03.793Z,43.38
2022-11-08T12:21:52.163Z,42.69
2022-11-08T12:24:37.916Z,42.47
2022-11-08T12:27:08.971Z,42.56
2022-11-08T12:29:54.812Z,42.36
2022-11-08T12:32:44.283Z,41.28
2022-11-08T12:35:36.666Z,41.24
2022-11-08T12:38:20.049Z,40.93
2022-11-08T12:41:13.842Z,41.63
2022-11-08T12:43:43.885Z,41.90
2022-11-08T12:46:18.745Z,41.91
2022-11-08T12:48:55.063Z,43.14
2022-11-08T12:51:40.592Z,47.22
2022-11-08T12:54:18.193Z,49.58
2022-11-08T12:56:48.523Z,51.83
2022-11-08T12:59:18.520Z,52.46
2022-11-08T13:01:47.884Z,52.74
2022-11-08T13:04:19.174Z,53.07
2022-11-08T13:06:57.787Z,55.55
2022-11-08T13:09:36.350Z,55.04
2022-11-08T13:12:26.362Z,55.10
2022-11-08T13:14:55.278Z,53.39
2022-11-08T13:17:25.221Z,53.35
2022-11-08T13:20:08.372Z,51.82
2022-11-08T13:22:45.801Z,49.40
2022-11-08T13:25:31.390Z,47.86
2022-11-08T13:27:59.041Z,48.03
2022-11-08T13:30:37.301Z,46.01
2022-11-08T13:33:27.031Z,45.08
2022-11-08T13:36:08.753Z,44.54
2022-11-08T13:38:50.970Z,45.26
2022-11-08T13:41:22.552Z,43.51
2022-11-08T13:44:01.536Z,44.29
2022-11-08T13:46:29.832Z,44.27
2022-11-08T13:49:03.901Z,44.23
2022-11-08T13:51:36.700Z,43.44
2022-11-08T13:54:03.538Z,43.89
2022-11-08T13:56:33.314Z,44.40
2022-11-08T13:59:00.152Z,44.41
2022-11-08T14:01:38.436Z,45.96
2022-11-08T14:04:22.913Z,44.95
2022-11-08T14:06:55.999Z,46.48
2022-11-08T14:09:39.293Z,45.71
2022-11-08T14:12:15.493Z,45.06
2022-11-08T14:14:56.771Z,45.00
2022-11-08T14:17:30.140Z,45.18
2022-11-08T14:19:58.793Z,45.26
2022-11-08T14:22:27.682Z,45.03
2022-11-08T14:25:20.845Z,46.26
2022-11-08T14:27:47.663Z,46.45
2022-11-08T14:30:16.006Z,47.30
2022-11-08T14:32:42.921Z,48.22
2022-11-08T14:35:26.959Z,51.41
2022-11-08T14:37:53.942Z,50.63
2022-11-08T14:40:28.639Z,50.95
2022-11-08T14:42:56.198Z,50.25
2022-11-08T14:45:48.504Z,50.70
2022-11-08T14:48:21.654Z,51.76
2022-11-08T14:50:48.722Z,51.97
2022-11-08T14:53:27.484Z,51.93
2022-11-08T14:55:56.646Z,52.87
2022-11-08T14:58:30.306Z,53.65
2022-11-08T15:00:58.162Z,54.70
2022-11-08T15:03:28.684Z,55.98
2022-11-08T15:05:56.969Z,54.82
2022-11-08T15:08:29.297Z,54.45
2022-11-08T15:11:11.438Z,55.20
2022-11-08T15:13:51.679Z,55.75
2022-11-08T15:16:21.314Z,56.19
2022-11-08T15:18:50.675Z,59.25
2022-11-08T15:21:29.414Z,58.13
2022-11-08T15:24:27.483Z,57.55
2022-11-08T15:27:20.243Z,58.66
2022-11-08T15:29:54.116Z,57.93
2022-11-08T15:32:22.113Z,60.75
2022-11-08T15:34:49.366Z,59.78
2022-11-08T15:37:20.633Z,59.40
2022-11-08T15:39:48.092Z,61.41
2022-11-08T15:42:16.263Z,61.34
2022-11-08T15:44:59.592Z,61.00
2022-11-08T15:47:44.097Z,62.58
2022-11-08T15:50:14.343Z,60.93
2022-11-08T15:52:41.609Z,64.59
2022-11-08T15:55:08.955Z,61.81
2022-11-08T15:57:38.963Z,61.26
2022-11-08T16:00:05.951Z,62.09
2022-11-08T16:02:32.624Z,61.57
2022-11-08T16:04:59.932Z,61.60
2022-11-08T16:07:26.664Z,61.23
2022-11-08T16:09:53.254Z,61.81
2022-11-08T16:12:19.996Z,61.92
2022-11-08T16:14:46.696Z,62.39
2022-11-08T16:17:14.368Z,62.96
2022-11-08T16:19:41.221Z,63.77
2022-11-08T16:22:07.877Z,62.03
2022-11-08T16:24:34.818Z,60.73
2022-11-08T16:27:01.676Z,65.12
2022-11-08T16:29:31.262Z,65.32
2022-11-08T16:31:58.005Z,66.30
2022-11-08T16:34:24.754Z,65.75
2022-11-08T16:36:52.233Z,66.76
2022-11-08T16:39:19.634Z,71.16
2022-11-08T16:41:46.596Z,68.93
2022-11-08T16:44:13.861Z,69.49
2022-11-08T16:46:40.994Z,71.10
2022-11-08T16:49:15.697Z,70.08
2022-11-08T16:51:45.058Z,72.97
2022-11-08T16:54:24.168Z,72.91
2022-11-08T16:56:51.715Z,72.23
2022-11-08T16:59:18.588Z,72.14
2022-11-08T17:01:45.789Z,70.22
2022-11-08T17:04:12.518Z,70.84
2022-11-08T17:06:39.376Z,73.31
2022-11-08T17:09:06.275Z,73.78
2022-11-08T17:11:33.027Z,73.65
2022-11-08T17:13:59.800Z,70.73
2022-11-08T17:16:27.435Z,73.12
2022-11-08T17:18:54.178Z,72.56
2022-11-08T17:24:08.347Z,73.03
2022-11-08T17:26:35.137Z,71.82
2022-11-08T17:29:01.957Z,70.10
2022-11-08T17:31:28.685Z,69.21
2022-11-08T17:33:56.144Z,68.33
2022-11-08T17:36:23.160Z,67.76
2022-11-08T17:38:49.992Z,66.64
2022-11-08T17:41:16.841Z,67.09
2022-11-08T17:43:43.568Z,65.61
2022-11-08T17:46:14.568Z,66.71
2022-11-08T17:48:41.436Z,69.16
2022-11-08T17:51:08.828Z,68.27
2022-11-08T17:53:35.761Z,66.78
2022-11-08T17:56:04.095Z,66.34
2022-11-08T17:58:34.350Z,65.25
2022-11-08T18:01:02.670Z,66.63
2022-11-08T18:03:29.797Z,66.12
2022-11-08T18:05:57.807Z,66.22
2022-11-08T18:08:27.103Z,67.64
2022-11-08T18:10:54.687Z,63.89
2022-11-08T18:13:21.997Z,66.42
2022-11-08T18:15:50.170Z,66.88
2022-11-08T18:18:17.199Z,70.43
2022-11-08T18:20:44.013Z,75.54
2022-11-08T18:23:15.199Z,72.19
2022-11-08T18:25:41.967Z,72.76
2022-11-08T18:28:08.762Z,71.48
2022-11-08T18:30:36.107Z,75.79
2022-11-08T18:33:02.848Z,72.45
2022-11-08T18:35:29.661Z,73.39
2022-11-08T18:37:56.519Z,71.27
2022-11-08T18:40:23.279Z,75.44
2022-11-08T18:42:52.230Z,73.80
2022-11-08T18:45:18.927Z,75.17
2022-11-08T18:47:45.802Z,74.96
2022-11-08T18:50:14.335Z,76.71
2022-11-08T18:52:45.804Z,76.31
2022-11-08T18:55:12.922Z,75.83
2022-11-08T18:57:39.815Z,78.96
2022-11-08T19:00:07.045Z,76.29
2022-11-08T19:02:34.068Z,75.38
2022-11-08T19:05:00.837Z,78.24
2022-11-08T19:07:28.114Z,80.06
2022-11-08T19:09:54.948Z,78.60
2022-11-08T19:12:21.898Z,78.43
2022-11-08T19:14:48.667Z,77.76
2022-11-08T19:17:16.558Z,79.43
2022-11-08T19:19:44.512Z,78.59
2022-11-08T19:22:11.657Z,80.26
2022-11-08T19:24:38.627Z,82.34
2022-11-08T19:27:06.597Z,81.21
2022-11-08T19:29:33.519Z,80.16
2022-11-08T19:32:00.456Z,83.47
2022-11-08T19:34:27.285Z,81.99
2022-11-08T19:36:56.123Z,81.21
2022-11-08T19:39:24.732Z,80.80
2022-11-08T19:41:51.756Z,81.05
2022-11-08T19:44:18.701Z,80.51
2022-11-08T19:46:45.529Z,82.01
2022-11-08T19:49:12.299Z,83.58
2022-11-08T19:51:39.446Z,83.60
2022-11-08T19:54:08.288Z,83.19
2022-11-08T19:57:04.687Z,82.08
2022-11-08T19:59:22.806Z,82.47
2022-11-08T20:01:49.626Z,83.40
2022-11-08T20:04:18.763Z,84.44
2022-11-08T20:06:46.541Z,84.77
2022-11-08T20:09:13.597Z,83.83
2022-11-08T20:11:41.308Z,84.27
2022-11-08T20:14:10.221Z,82.52
2022-11-08T20:16:42.142Z,85.49
2022-11-08T20:19:10.741Z,82.69
2022-11-08T20:21:40.969Z,84.24
2022-11-08T20:24:08.328Z,82.62
2022-11-08T20:26:37.688Z,85.40
2022-11-08T20:29:05.116Z,85.59
2022-11-08T20:31:33.248Z,83.46
2022-11-08T20:34:01.715Z,82.52
2022-11-08T20:36:33.146Z,83.66
2022-11-08T20:39:06.493Z,83.06
2022-11-08T20:41:35.056Z,84.12
2022-11-08T20:44:01.856Z,82.97
2022-11-08T20:46:29.415Z,82.15
2022-11-08T20:49:00.637Z,83.04
2022-11-08T20:51:28.566Z,80.71
2022-11-08T20:53:56.010Z,85.71
2022-11-08T20:56:23.266Z,85.99
2022-11-08T20:58:50.712Z,85.80
2022-11-08T21:01:18.925Z,86.13
2022-11-08T21:03:46.080Z,84.75
2022-11-08T21:06:14.674Z,83.92
2022-11-08T21:11:30.448Z,84.37
2022-11-08T21:13:57.594Z,82.22
2022-11-08T21:16:30.424Z,86.43
2022-11-08T21:18:58.930Z,87.07
2022-11-08T21:21:26.255Z,88.64
2022-11-08T21:23:54.785Z,88.79
2022-11-08T21:26:22.259Z,86.40
2022-11-08T21:28:49.329Z,88.70
2022-11-08T21:31:16.153Z,86.64
2022-11-08T21:33:43.397Z,85.85
2022-11-08T21:36:10.267Z,86.21
2022-11-08T21:38:37.797Z,88.99
2022-11-08T21:41:08.527Z,90.44
2022-11-08T21:43:37.406Z,91.40
2022-11-08T21:46:15.181Z,92.43
2022-11-08T21:48:42.426Z,88.05
2022-11-08T21:51:09.801Z,86.89
2022-11-08T21:53:45.195Z,87.29
2022-11-08T21:56:16.909Z,85.44
2022-11-08T21:58:43.800Z,88.76
2022-11-08T22:01:10.646Z,87.09
2022-11-08T22:03:37.370Z,83.30
2022-11-08T22:06:04.069Z,81.01
2022-11-08T22:08:30.786Z,83.53
2022-11-08T22:10:57.484Z,83.24
2022-11-08T22:13:25.379Z,80.36
2022-11-08T22:15:52.068Z,81.08
2022-11-08T22:18:26.500Z,81.59
2022-11-08T22:21:22.086Z,79.74
2022-11-08T22:23:48.846Z,77.69
2022-11-08T22:26:15.735Z,78.05
2022-11-08T22:28:42.426Z,78.57
2022-11-08T22:31:09.152Z,78.73
2022-11-08T22:33:35.856Z,79.60
2022-11-08T22:36:02.496Z,80.58
2022-11-08T22:38:29.228Z,81.97
2022-11-08T22:40:56.176Z,81.72
2022-11-08T22:43:23.015Z,80.13
2022-11-08T22:45:49.689Z,81.94
2022-11-08T22:48:17.434Z,80.51
2022-11-08T22:50:44.566Z,83.07
2022-11-08T22:53:11.333Z,84.25
2022-11-08T22:55:38.015Z,82.86
2022-11-08T22:58:04.764Z,84.01
2022-11-08T23:00:31.627Z,79.87
2022-11-08T23:02:58.316Z,79.11
2022-11-08T23:05:25.000Z,79.90
2022-11-08T23:07:51.787Z,81.53
2022-11-08T23:10:18.515Z,81.41
2022-11-08T23:13:04.017Z,82.30
2022-11-08T23:15:52.902Z,81.25
2022-11-08T23:18:23.104Z,81.89
2022-11-08T23:21:13.002Z,82.27
2022-11-08T23:24:02.615Z,82.49
2022-11-08T23:26:49.790Z,79.97
2022-11-08T23:29:35.157Z,80.62
2022-11-08T23:32:01.927Z,81.79
2022-11-08T23:34:29.236Z,80.46
2022-11-08T23:36:56.056Z,80.96
2022-11-08T23:39:22.796Z,81.88
2022-11-08T23:42:08.282Z,84.23
2022-11-08T23:44:35.028Z,81.66
2022-11-08T23:47:01.926Z,84.01
2022-11-08T23:49:28.819Z,83.75
2022-11-08T23:51:55.546Z,82.87
2022-11-08T23:54:22.318Z,83.17
2022-11-08T23:56:49.300Z,83.23
2022-11-08T23:59:16.256Z,83.86
